This is the latest recevied weather packets stored in our database for station/object KB4JHU-15. If no packets are shown the sender has not sent any weather packets the latest 10 day(s).
| Time | Temp. | Humidity | Pressure | Rain* | Wind** | Luminosity | Snow |
|---|---|---|---|---|---|---|---|
| 1788134010 | 88° F | 54% | - | 0 in | - | - | - |
| 1788132209 | 90° F | 51% | - | 0 in | - | - | - |
| 1788130408 | 91° F | 48% | - | 0 in | - | - | - |
| 1788128607 | 91° F | 48% | - | 0 in | - | - | - |
| 1788126806 | 90° F | 49% | - | 0 in | - | - | - |
| 1788125005 | 91° F | 50% | - | 0 in | - | - | - |
| 1788123204 | 92° F | 47% | - | 0 in | - | - | - |
| 1788121403 | 90° F | 48% | - | 0 in | - | - | - |
| 1788119602 | 92° F | 46% | - | 0 in | - | - | - |
| 1788117801 | 91° F | 49% | - | 0 in | - | - | - |
| 1788116000 | 91° F | 50% | - | 0 in | - | - | - |
| 1788114199 | 91° F | 50% | - | 0 in | - | - | - |
| 1788112398 | 89° F | 54% | - | 0 in | - | - | - |
| 1788110597 | 90° F | 53% | - | 0 in | - | - | - |
| 1788108796 | 89° F | 56% | - | 0 in | - | - | - |
| 1788106995 | 88° F | 60% | - | 0 in | - | - | - |
| 1788105194 | 86° F | 62% | - | 0 in | - | - | - |
| 1788103393 | 83° F | 68% | - | 0 in | - | - | - |
| 1788101592 | 84° F | 67% | - | 0 in | - | - | - |
| 1788099791 | 83° F | 71% | - | 0 in | - | - | - |
| 1788097990 | 82° F | 74% | - | 0 in | - | - | - |
| 1788096189 | 79° F | 79% | - | 0 in | - | - | - |
| 1788094388 | 76° F | 88% | - | 0 in | - | - | - |
| 1788092587 | 72° F | 93% | - | 0 in | - | - | - |
| 1788090786 | 70° F | 94% | - | 0 in | - | - | - |
* Rain latest hour (hover to see other rain measurements)
** Current wind speed in m/s (hover to see current wind gust speed)